sensor_id;sensor_type;location;lat;lon;timestamp;pressure;altitude;pressure_sealevel;temperature;humidity
68965;BME280;56017;48.680;8.998;2023-04-28T00:02:03;96530;;;11.4;73
68965;BME280;56017;48.680;8.998;2023-04-28T00:04:34;96520;;;11;73.5
68965;BME280;56017;48.680;8.998;2023-04-28T00:07:06;96530;;;10.8;74
68965;BME280;56017;48.680;8.998;2023-04-28T00:12:07;96530;;;10.7;74.5
68965;BME280;56017;48.680;8.998;2023-04-28T00:14:38;96530;;;10.7;75
68965;BME280;56017;48.680;8.998;2023-04-28T00:17:09;96530;;;10.7;74.5
68965;BME280;56017;48.680;8.998;2023-04-28T00:19:40;96530;;;10.7;74.5
68965;BME280;56017;48.680;8.998;2023-04-28T00:22:17;96530;;;10.7;75
68965;BME280;56017;48.680;8.998;2023-04-28T00:24:41;96520;;;10.8;75
68965;BME280;56017;48.680;8.998;2023-04-28T00:27:12;96520;;;10.9;74.5
68965;BME280;56017;48.680;8.998;2023-04-28T00:29:43;96520;;;11;74
68965;BME280;56017;48.680;8.998;2023-04-28T00:32:20;96520;;;11.1;74
68965;BME280;56017;48.680;8.998;2023-04-28T00:34:45;96510;;;11.1;74
68965;BME280;56017;48.680;8.998;2023-04-28T00:39:40;96510;;;11.3;73.5
68965;BME280;56017;48.680;8.998;2023-04-28T00:44:41;96500;;;11.2;73.5
68965;BME280;56017;48.680;8.998;2023-04-28T00:49:42;96500;;;11.2;73.5
68965;BME280;56017;48.680;8.998;2023-04-28T00:54:44;96500;;;11.3;73.5
68965;BME280;56017;48.680;8.998;2023-04-28T00:57:28;96490;;;11.4;73.5
68965;BME280;56017;48.680;8.998;2023-04-28T00:59:58;96490;;;11.5;73.5
68965;BME280;56017;48.680;8.998;2023-04-28T01:02:28;96490;;;11.6;73.5
68965;BME280;56017;48.680;8.998;2023-04-28T01:04:58;96500;;;11.7;73.5
68965;BME280;56017;48.680;8.998;2023-04-28T01:07:42;96490;;;11.7;73.5
68965;BME280;56017;48.680;8.998;2023-04-28T01:10:06;96490;;;11.8;73.5
68965;BME280;56017;48.680;8.998;2023-04-28T01:14:59;96490;;;11.9;73
68965;BME280;56017;48.680;8.998;2023-04-28T01:20:00;96480;;;11.9;73
68965;BME280;56017;48.680;8.998;2023-04-28T01:22:30;96470;;;11.8;73
68965;BME280;56017;48.680;8.998;2023-04-28T01:25:00;96470;;;11.8;73
68965;BME280;56017;48.680;8.998;2023-04-28T01:27:30;96470;;;11.8;73
68965;BME280;56017;48.680;8.998;2023-04-28T01:30:07;96460;;;11.8;73
68965;BME280;56017;48.680;8.998;2023-04-28T01:32:24;96460;;;11.8;73
68965;BME280;56017;48.680;8.998;2023-04-28T01:34:55;96460;;;11.8;73
68965;BME280;56017;48.680;8.998;2023-04-28T01:37:26;96460;;;11.9;73
68965;BME280;56017;48.680;8.998;2023-04-28T01:39:57;96460;;;11.9;73
68965;BME280;56017;48.680;8.998;2023-04-28T01:42:28;96460;;;11.9;73
68965;BME280;56017;48.680;8.998;2023-04-28T01:50:07;96450;;;11.9;73.5
68965;BME280;56017;48.680;8.998;2023-04-28T01:52:37;96450;;;11.9;73
68965;BME280;56017;48.680;8.998;2023-04-28T01:55:20;96450;;;11.9;73
68965;BME280;56017;48.680;8.998;2023-04-28T02:00:01;96450;;;11.9;73
68965;BME280;56017;48.680;8.998;2023-04-28T02:02:32;96450;;;11.9;73
68965;BME280;56017;48.680;8.998;2023-04-28T02:05:03;96440;;;11.8;73
68965;BME280;56017;48.680;8.998;2023-04-28T02:07:41;96440;;;11.9;73
68965;BME280;56017;48.680;8.998;2023-04-28T02:10:05;96430;;;11.9;73
68965;BME280;56017;48.680;8.998;2023-04-28T02:12:36;96430;;;11.9;73
68965;BME280;56017;48.680;8.998;2023-04-28T02:15:07;96430;;;11.9;73
68965;BME280;56017;48.680;8.998;2023-04-28T02:17:38;96430;;;11.8;73
68965;BME280;56017;48.680;8.998;2023-04-28T02:20:09;96430;;;11.8;73.5
68965;BME280;56017;48.680;8.998;2023-04-28T02:22:40;96430;;;11.7;73.5
68965;BME280;56017;48.680;8.998;2023-04-28T02:25:11;96430;;;11.6;74
68965;BME280;56017;48.680;8.998;2023-04-28T02:27:42;96430;;;11.7;74
68965;BME280;56017;48.680;8.998;2023-04-28T02:30:13;96430;;;11.8;74
68965;BME280;56017;48.680;8.998;2023-04-28T02:32:43;96430;;;11.9;73.5
68965;BME280;56017;48.680;8.998;2023-04-28T02:35:15;96420;;;12;73
68965;BME280;56017;48.680;8.998;2023-04-28T02:37:45;96420;;;12;73
68965;BME280;56017;48.680;8.998;2023-04-28T02:40:16;96420;;;12;73
68965;BME280;56017;48.680;8.998;2023-04-28T02:42:47;96420;;;11.9;73
68965;BME280;56017;48.680;8.998;2023-04-28T02:45:18;96430;;;11.9;73.5
68965;BME280;56017;48.680;8.998;2023-04-28T02:47:49;96420;;;11.7;74
68965;BME280;56017;48.680;8.998;2023-04-28T02:50:20;96430;;;11.7;74.5
68965;BME280;56017;48.680;8.998;2023-04-28T02:52:51;96430;;;11.7;74.5
68965;BME280;56017;48.680;8.998;2023-04-28T02:55:29;96440;;;11.8;74
68965;BME280;56017;48.680;8.998;2023-04-28T02:57:53;96440;;;11.9;74
68965;BME280;56017;48.680;8.998;2023-04-28T03:00:24;96440;;;12;74
68965;BME280;56017;48.680;8.998;2023-04-28T03:02:55;96440;;;12;74.5
68965;BME280;56017;48.680;8.998;2023-04-28T03:05:26;96440;;;12.1;74.5
68965;BME280;56017;48.680;8.998;2023-04-28T03:07:57;96430;;;12.3;74
68965;BME280;56017;48.680;8.998;2023-04-28T03:10:28;96430;;;12.5;73.5
68965;BME280;56017;48.680;8.998;2023-04-28T03:12:59;96420;;;12.5;73
68965;BME280;56017;48.680;8.998;2023-04-28T03:18:07;96410;;;12.4;73.5
68965;BME280;56017;48.680;8.998;2023-04-28T03:20:32;96410;;;12.4;73
68965;BME280;56017;48.680;8.998;2023-04-28T03:23:03;96410;;;12.4;73
68965;BME280;56017;48.680;8.998;2023-04-28T03:25:34;96410;;;12.4;73
68965;BME280;56017;48.680;8.998;2023-04-28T03:28:05;96410;;;12.3;73.5
68965;BME280;56017;48.680;8.998;2023-04-28T03:32:59;96410;;;12.3;74
68965;BME280;56017;48.680;8.998;2023-04-28T03:38:01;96410;;;12.4;73.5
68965;BME280;56017;48.680;8.998;2023-04-28T03:40:45;96410;;;12.2;74
68965;BME280;56017;48.680;8.998;2023-04-28T03:43:15;96410;;;12.2;74.5
68965;BME280;56017;48.680;8.998;2023-04-28T03:48:22;96400;;;12.3;74
68965;BME280;56017;48.680;8.998;2023-04-28T03:50:46;96400;;;12.2;74
68965;BME280;56017;48.680;8.998;2023-04-28T03:53:16;96400;;;12.3;74
68965;BME280;56017;48.680;8.998;2023-04-28T03:55:59;96390;;;12.4;74
68965;BME280;56017;48.680;8.998;2023-04-28T03:58:17;96400;;;12.4;74
68965;BME280;56017;48.680;8.998;2023-04-28T04:03:10;96390;;;12.4;74
68965;BME280;56017;48.680;8.998;2023-04-28T04:05:41;96390;;;12.4;73.5
68965;BME280;56017;48.680;8.998;2023-04-28T04:08:12;96390;;;12.4;73.5
68965;BME280;56017;48.680;8.998;2023-04-28T04:10:44;96380;;;12.6;74
68965;BME280;56017;48.680;8.998;2023-04-28T04:13:14;96380;;;12.8;74
68965;BME280;56017;48.680;8.998;2023-04-28T04:15:38;96390;;;12.9;73.5
68965;BME280;56017;48.680;8.998;2023-04-28T04:18:08;96390;;;13;73.5
68965;BME280;56017;48.680;8.998;2023-04-28T04:20:40;96380;;;13;73.5
68965;BME280;56017;48.680;8.998;2023-04-28T04:23:10;96390;;;13;73.5
68965;BME280;56017;48.680;8.998;2023-04-28T04:30:42;96380;;;12.3;74
68965;BME280;56017;48.680;8.998;2023-04-28T04:33:19;96380;;;12.1;74.5
68965;BME280;56017;48.680;8.998;2023-04-28T04:35:50;96370;;;12;75
68965;BME280;56017;48.680;8.998;2023-04-28T04:38:21;96380;;;11.9;75
68965;BME280;56017;48.680;8.998;2023-04-28T04:40:52;96380;;;11.9;75
68965;BME280;56017;48.680;8.998;2023-04-28T04:46:00;96370;;;11.9;75.5
68965;BME280;56017;48.680;8.998;2023-04-28T04:48:37;96370;;;11.9;75.5
68965;BME280;56017;48.680;8.998;2023-04-28T04:51:05;96370;;;11.9;75.5
68965;BME280;56017;48.680;8.998;2023-04-28T04:53:37;96360;;;11.8;75.5
68965;BME280;56017;48.680;8.998;2023-04-28T04:56:00;96360;;;11.7;75.5
68965;BME280;56017;48.680;8.998;2023-04-28T04:58:38;96360;;;11.5;75.5
68965;BME280;56017;48.680;8.998;2023-04-28T05:01:01;96360;;;11.5;76
68965;BME280;56017;48.680;8.998;2023-04-28T05:03:37;96370;;;11.6;76
68965;BME280;56017;48.680;8.998;2023-04-28T05:05:56;96370;;;11.6;75.5
68965;BME280;56017;48.680;8.998;2023-04-28T05:08:26;96370;;;11.5;75.5
68965;BME280;56017;48.680;8.998;2023-04-28T05:10:57;96370;;;11.4;76
68965;BME280;56017;48.680;8.998;2023-04-28T05:13:28;96370;;;11.4;76
68965;BME280;56017;48.680;8.998;2023-04-28T05:18:22;96370;;;11.4;76
68965;BME280;56017;48.680;8.998;2023-04-28T05:23:24;96380;;;11.5;76
68965;BME280;56017;48.680;8.998;2023-04-28T05:28:35;96370;;;11.7;76
68965;BME280;56017;48.680;8.998;2023-04-28T05:33:27;96370;;;11.8;76
68965;BME280;56017;48.680;8.998;2023-04-28T05:36:24;96380;;;11.9;75.5
68965;BME280;56017;48.680;8.998;2023-04-28T05:38:48;96380;;;12;75.5
68965;BME280;56017;48.680;8.998;2023-04-28T05:41:11;96370;;;12;75.5
68965;BME280;56017;48.680;8.998;2023-04-28T05:46:06;96370;;;12.1;75.5
68965;BME280;56017;48.680;8.998;2023-04-28T05:48:36;96370;;;12.2;75.5
68965;BME280;56017;48.680;8.998;2023-04-28T05:51:07;96370;;;12.2;75.5
68965;BME280;56017;48.680;8.998;2023-04-28T05:53:39;96370;;;12.2;75.5
68965;BME280;56017;48.680;8.998;2023-04-28T05:56:09;96370;;;12.3;75.5
68965;BME280;56017;48.680;8.998;2023-04-28T06:01:12;96360;;;12.4;75.5
68965;BME280;56017;48.680;8.998;2023-04-28T06:03:42;96360;;;12.4;75
68965;BME280;56017;48.680;8.998;2023-04-28T06:08:45;96360;;;12.5;75
68965;BME280;56017;48.680;8.998;2023-04-28T06:16:17;96360;;;12.7;75
68965;BME280;56017;48.680;8.998;2023-04-28T06:18:48;96360;;;12.8;75
68965;BME280;56017;48.680;8.998;2023-04-28T06:21:19;96360;;;12.9;75
68965;BME280;56017;48.680;8.998;2023-04-28T06:23:52;96360;;;13;74.5
68965;BME280;56017;48.680;8.998;2023-04-28T06:26:21;96360;;;13;74.5
68965;BME280;56017;48.680;8.998;2023-04-28T06:31:23;96350;;;13.2;74.5
68965;BME280;56017;48.680;8.998;2023-04-28T06:36:31;96350;;;13.3;74.5
68965;BME280;56017;48.680;8.998;2023-04-28T06:38:56;96340;;;13.3;74.5
68965;BME280;56017;48.680;8.998;2023-04-28T06:41:28;96340;;;13.4;74.5
68965;BME280;56017;48.680;8.998;2023-04-28T06:43:58;96340;;;13.4;74.5
68965;BME280;56017;48.680;8.998;2023-04-28T06:46:35;96350;;;13.5;74.5
68965;BME280;56017;48.680;8.998;2023-04-28T06:49:00;96340;;;13.5;74
68965;BME280;56017;48.680;8.998;2023-04-28T06:51:31;96340;;;13.5;74.5
68965;BME280;56017;48.680;8.998;2023-04-28T06:54:02;96340;;;13.6;74
68965;BME280;56017;48.680;8.998;2023-04-28T06:56:39;96350;;;13.5;74.5
68965;BME280;56017;48.680;8.998;2023-04-28T06:59:13;96340;;;13.6;74.5
68965;BME280;56017;48.680;8.998;2023-04-28T07:01:34;96330;;;13.7;74
68965;BME280;56017;48.680;8.998;2023-04-28T07:04:05;96330;;;13.7;74
68965;BME280;56017;48.680;8.998;2023-04-28T07:06:37;96330;;;13.6;74
68965;BME280;56017;48.680;8.998;2023-04-28T07:09:07;96320;;;13.7;74
68965;BME280;56017;48.680;8.998;2023-04-28T07:11:38;96320;;;13.7;74
68965;BME280;56017;48.680;8.998;2023-04-28T07:14:10;96320;;;13.8;74
68965;BME280;56017;48.680;8.998;2023-04-28T07:19:12;96320;;;13.9;74
68965;BME280;56017;48.680;8.998;2023-04-28T07:21:42;96320;;;14;74
68965;BME280;56017;48.680;8.998;2023-04-28T07:24:14;96320;;;14;74
68965;BME280;56017;48.680;8.998;2023-04-28T07:26:44;96320;;;14;74
68965;BME280;56017;48.680;8.998;2023-04-28T07:34:23;96320;;;13.7;74
68965;BME280;56017;48.680;8.998;2023-04-28T07:36:53;96320;;;13.6;74
68965;BME280;56017;48.680;8.998;2023-04-28T07:41:47;96320;;;13.4;74.5
68965;BME280;56017;48.680;8.998;2023-04-28T07:44:18;96320;;;13.3;74.5
68965;BME280;56017;48.680;8.998;2023-04-28T07:46:49;96320;;;13.2;75
68965;BME280;56017;48.680;8.998;2023-04-28T07:49:20;96320;;;13.1;75
68965;BME280;56017;48.680;8.998;2023-04-28T07:51:51;96320;;;13;75
68965;BME280;56017;48.680;8.998;2023-04-28T07:54:22;96320;;;12.9;75.5
68965;BME280;56017;48.680;8.998;2023-04-28T07:56:52;96320;;;12.9;75.5
68965;BME280;56017;48.680;8.998;2023-04-28T07:59:23;96330;;;12.9;75.5
68965;BME280;56017;48.680;8.998;2023-04-28T08:01:55;96340;;;12.9;75.5
68965;BME280;56017;48.680;8.998;2023-04-28T08:04:25;96340;;;12.8;75.5
68965;BME280;56017;48.680;8.998;2023-04-28T08:09:27;96350;;;12.9;75.5
68965;BME280;56017;48.680;8.998;2023-04-28T08:11:58;96350;;;12.8;75.5
68965;BME280;56017;48.680;8.998;2023-04-28T08:14:29;96350;;;12.8;75.5
68965;BME280;56017;48.680;8.998;2023-04-28T08:17:00;96360;;;12.8;75.5
68965;BME280;56017;48.680;8.998;2023-04-28T08:19:32;96360;;;12.8;75.5
68965;BME280;56017;48.680;8.998;2023-04-28T08:22:02;96360;;;12.8;75.5
68965;BME280;56017;48.680;8.998;2023-04-28T08:24:33;96360;;;12.9;75.5
68965;BME280;56017;48.680;8.998;2023-04-28T08:27:04;96360;;;12.9;75.5
68965;BME280;56017;48.680;8.998;2023-04-28T08:29:43;96360;;;12.9;75.5
68965;BME280;56017;48.680;8.998;2023-04-28T08:34:43;96360;;;13;75
68965;BME280;56017;48.680;8.998;2023-04-28T08:37:14;96360;;;13.1;75.5
68965;BME280;56017;48.680;8.998;2023-04-28T08:39:45;96360;;;13.1;75.5
68965;BME280;56017;48.680;8.998;2023-04-28T08:42:10;96360;;;13.2;75.5
68965;BME280;56017;48.680;8.998;2023-04-28T08:44:41;96360;;;13.3;75
68965;BME280;56017;48.680;8.998;2023-04-28T08:47:18;96360;;;13.3;75
68965;BME280;56017;48.680;8.998;2023-04-28T08:49:49;96360;;;13.4;75
68965;BME280;56017;48.680;8.998;2023-04-28T08:54:45;96370;;;13.5;75
68965;BME280;56017;48.680;8.998;2023-04-28T08:57:16;96370;;;13.5;75
68965;BME280;56017;48.680;8.998;2023-04-28T08:59:53;96370;;;13.6;75
68965;BME280;56017;48.680;8.998;2023-04-28T09:02:24;96380;;;13.7;75
68965;BME280;56017;48.680;8.998;2023-04-28T09:04:55;96370;;;13.7;75
68965;BME280;56017;48.680;8.998;2023-04-28T09:07:22;96380;;;13.7;75
68965;BME280;56017;48.680;8.998;2023-04-28T09:12:35;96380;;;13.6;75
68965;BME280;56017;48.680;8.998;2023-04-28T09:14:56;96380;;;13.7;75
68965;BME280;56017;48.680;8.998;2023-04-28T09:17:23;96390;;;13.8;75
68965;BME280;56017;48.680;8.998;2023-04-28T09:22:26;96390;;;13.9;75
68965;BME280;56017;48.680;8.998;2023-04-28T09:25:09;96390;;;14;75
68965;BME280;56017;48.680;8.998;2023-04-28T09:27:34;96390;;;14;75
68965;BME280;56017;48.680;8.998;2023-04-28T09:33:02;96400;;;14.4;75
68965;BME280;56017;48.680;8.998;2023-04-28T09:37:38;96400;;;14.4;75
68965;BME280;56017;48.680;8.998;2023-04-28T09:42:41;96400;;;14.6;75
68965;BME280;56017;48.680;8.998;2023-04-28T09:47:42;96400;;;14.8;75
68965;BME280;56017;48.680;8.998;2023-04-28T09:52:44;96400;;;14.9;75.5
68965;BME280;56017;48.680;8.998;2023-04-28T09:55:15;96400;;;15.1;75.5
68965;BME280;56017;48.680;8.998;2023-04-28T09:57:39;96390;;;15.3;75
68965;BME280;56017;48.680;8.998;2023-04-28T10:02:47;96400;;;15.8;74.5
68965;BME280;56017;48.680;8.998;2023-04-28T10:07:49;96400;;;15.9;75
68965;BME280;56017;48.680;8.998;2023-04-28T10:12:51;96400;;;15.8;75
68965;BME280;56017;48.680;8.998;2023-04-28T10:17:53;96400;;;16.1;75
68965;BME280;56017;48.680;8.998;2023-04-28T10:20:18;96420;;;16.2;74.5
68965;BME280;56017;48.680;8.998;2023-04-28T10:22:59;96400;;;16.2;75
68965;BME280;56017;48.680;8.998;2023-04-28T10:27:51;96410;;;16.5;74.5
68965;BME280;56017;48.680;8.998;2023-04-28T10:30:22;96400;;;16.6;74.5
68965;BME280;56017;48.680;8.998;2023-04-28T10:33:22;96410;;;16.6;74.5
68965;BME280;56017;48.680;8.998;2023-04-28T10:35:44;96410;;;16.5;74.5
68965;BME280;56017;48.680;8.998;2023-04-28T10:38:02;96410;;;16.5;75
68965;BME280;56017;48.680;8.998;2023-04-28T10:40:33;96400;;;16.6;75
68965;BME280;56017;48.680;8.998;2023-04-28T10:43:03;96400;;;16.6;74.5
68965;BME280;56017;48.680;8.998;2023-04-28T10:45:59;96400;;;16.8;74.5
68965;BME280;56017;48.680;8.998;2023-04-28T10:48:05;96400;;;16.9;74.5
68965;BME280;56017;48.680;8.998;2023-04-28T10:53:00;96390;;;16.9;74.5
68965;BME280;56017;48.680;8.998;2023-04-28T10:55:36;96390;;;17;74.5
68965;BME280;56017;48.680;8.998;2023-04-28T10:58:31;96390;;;17.3;74.5
68965;BME280;56017;48.680;8.998;2023-04-28T11:04:14;96390;;;17.4;74.5
68965;BME280;56017;48.680;8.998;2023-04-28T11:05:35;96390;;;17.4;74.5
68965;BME280;56017;48.680;8.998;2023-04-28T11:11:14;96400;;;17.3;74.5
68965;BME280;56017;48.680;8.998;2023-04-28T11:13:39;96400;;;17.3;74.5
68965;BME280;56017;48.680;8.998;2023-04-28T11:15:54;96400;;;17.3;74.5
68965;BME280;56017;48.680;8.998;2023-04-28T11:18:19;96400;;;17.4;74.5
68965;BME280;56017;48.680;8.998;2023-04-28T11:23:18;96390;;;17.6;74.5
68965;BME280;56017;48.680;8.998;2023-04-28T11:28:20;96390;;;17.7;74.5
68965;BME280;56017;48.680;8.998;2023-04-28T11:33:22;96390;;;17.9;74.5
68965;BME280;56017;48.680;8.998;2023-04-28T11:35:53;96390;;;18.2;74
68965;BME280;56017;48.680;8.998;2023-04-28T11:38:18;96400;;;18.2;74
68965;BME280;56017;48.680;8.998;2023-04-28T11:40:56;96390;;;18.2;74
68965;BME280;56017;48.680;8.998;2023-04-28T11:43:28;96380;;;18.2;74
68965;BME280;56017;48.680;8.998;2023-04-28T11:45:57;96380;;;18.2;74
68965;BME280;56017;48.680;8.998;2023-04-28T11:48:28;96380;;;18.2;74
68965;BME280;56017;48.680;8.998;2023-04-28T11:50:52;96380;;;18;74.5
68965;BME280;56017;48.680;8.998;2023-04-28T11:53:54;96380;;;17.9;74.5
68965;BME280;56017;48.680;8.998;2023-04-28T11:58:32;96380;;;17.8;74.5
68965;BME280;56017;48.680;8.998;2023-04-28T12:01:12;96380;;;17.8;74.5
68965;BME280;56017;48.680;8.998;2023-04-28T12:03:27;96380;;;17.8;74.5
68965;BME280;56017;48.680;8.998;2023-04-28T12:05:59;96380;;;17.7;74.5
68965;BME280;56017;48.680;8.998;2023-04-28T12:08:29;96380;;;17.7;74.5
68965;BME280;56017;48.680;8.998;2023-04-28T12:11:06;96380;;;17.7;75
68965;BME280;56017;48.680;8.998;2023-04-28T12:13:38;96380;;;17.8;75
68965;BME280;56017;48.680;8.998;2023-04-28T12:16:09;96380;;;17.9;74.5
68965;BME280;56017;48.680;8.998;2023-04-28T12:18:34;96380;;;18;74.5
68965;BME280;56017;48.680;8.998;2023-04-28T12:23:35;96380;;;18.3;74
68965;BME280;56017;48.680;8.998;2023-04-28T12:28:43;96380;;;18.4;74
68965;BME280;56017;48.680;8.998;2023-04-28T12:31:09;96380;;;18.4;74.5
68965;BME280;56017;48.680;8.998;2023-04-28T12:33:39;96370;;;18.5;74.5
68965;BME280;56017;48.680;8.998;2023-04-28T12:36:10;96380;;;18.6;74
68965;BME280;56017;48.680;8.998;2023-04-28T12:38:46;96370;;;18.6;74
68965;BME280;56017;48.680;8.998;2023-04-28T12:41:18;96370;;;18.5;74
68965;BME280;56017;48.680;8.998;2023-04-28T12:43:49;96370;;;18.5;74
68965;BME280;56017;48.680;8.998;2023-04-28T12:46:20;96370;;;18.3;74.5
68965;BME280;56017;48.680;8.998;2023-04-28T12:53:46;96370;;;18.4;74.5
68965;BME280;56017;48.680;8.998;2023-04-28T12:56:18;96370;;;18.3;74.5
68965;BME280;56017;48.680;8.998;2023-04-28T12:58:48;96370;;;18.3;74.5
68965;BME280;56017;48.680;8.998;2023-04-28T13:01:29;96370;;;18.3;74.5
68965;BME280;56017;48.680;8.998;2023-04-28T13:03:50;96370;;;18.2;74.5
68965;BME280;56017;48.680;8.998;2023-04-28T13:06:28;96370;;;18.2;74.5
68965;BME280;56017;48.680;8.998;2023-04-28T13:08:59;96370;;;18.2;75
68965;BME280;56017;48.680;8.998;2023-04-28T13:11:23;96370;;;18.4;74.5
68965;BME280;56017;48.680;8.998;2023-04-28T13:13:54;96360;;;18.5;74.5
68965;BME280;56017;48.680;8.998;2023-04-28T13:16:26;96350;;;18.7;74
68965;BME280;56017;48.680;8.998;2023-04-28T13:18:56;96350;;;18.8;74
68965;BME280;56017;48.680;8.998;2023-04-28T13:21:34;96340;;;18.9;74
68965;BME280;56017;48.680;8.998;2023-04-28T13:24:06;96340;;;19;74
68965;BME280;56017;48.680;8.998;2023-04-28T13:29:00;96350;;;18.8;74
68965;BME280;56017;48.680;8.998;2023-04-28T13:31:38;96350;;;18.6;74.5
68965;BME280;56017;48.680;8.998;2023-04-28T13:36:36;96360;;;18.3;75
68965;BME280;56017;48.680;8.998;2023-04-28T13:39:10;96360;;;18.2;75
68965;BME280;56017;48.680;8.998;2023-04-28T13:41:36;96350;;;18.3;75
68965;BME280;56017;48.680;8.998;2023-04-28T13:44:13;96350;;;18.3;75
68965;BME280;56017;48.680;8.998;2023-04-28T13:46:43;96350;;;18.3;75
68965;BME280;56017;48.680;8.998;2023-04-28T13:49:08;96350;;;18.4;75
68965;BME280;56017;48.680;8.998;2023-04-28T13:54:10;96350;;;17.2;76
68965;BME280;56017;48.680;8.998;2023-04-28T13:59:18;96360;;;16.5;77
68965;BME280;56017;48.680;8.998;2023-04-28T14:04:13;96360;;;16.1;78
68965;BME280;56017;48.680;8.998;2023-04-28T14:09:22;96360;;;16;78
68965;BME280;56017;48.680;8.998;2023-04-28T14:19:19;96360;;;15.6;77.5
68965;BME280;56017;48.680;8.998;2023-04-28T14:21:57;96360;;;15.5;77
68965;BME280;56017;48.680;8.998;2023-04-28T14:26:59;96340;;;15;77.5
68965;BME280;56017;48.680;8.998;2023-04-28T14:29:23;96330;;;15;77.5
68965;BME280;56017;48.680;8.998;2023-04-28T14:32:01;96320;;;15.1;77.5
68965;BME280;56017;48.680;8.998;2023-04-28T14:34:25;96330;;;15.1;77.5
68965;BME280;56017;48.680;8.998;2023-04-28T14:36:57;96330;;;15.2;77.5
68965;BME280;56017;48.680;8.998;2023-04-28T14:39:27;96340;;;15.3;77
68965;BME280;56017;48.680;8.998;2023-04-28T14:42:05;96330;;;15.3;77
68965;BME280;56017;48.680;8.998;2023-04-28T14:44:29;96340;;;15.3;77
68965;BME280;56017;48.680;8.998;2023-04-28T14:47:01;96330;;;15.2;77
68965;BME280;56017;48.680;8.998;2023-04-28T14:52:02;96340;;;15.2;77
68965;BME280;56017;48.680;8.998;2023-04-28T14:54:39;96330;;;15.3;77
68965;BME280;56017;48.680;8.998;2023-04-28T14:57:10;96330;;;15.3;77
68965;BME280;56017;48.680;8.998;2023-04-28T14:59:35;96320;;;15.4;77
68965;BME280;56017;48.680;8.998;2023-04-28T15:09:39;96330;;;15.3;77
68965;BME280;56017;48.680;8.998;2023-04-28T15:12:27;96330;;;15.2;77
68965;BME280;56017;48.680;8.998;2023-04-28T15:14:41;96320;;;15.1;77
68965;BME280;56017;48.680;8.998;2023-04-28T15:19:43;96320;;;14.9;77.5
68965;BME280;56017;48.680;8.998;2023-04-28T15:22:17;96320;;;15;77.5
68965;BME280;56017;48.680;8.998;2023-04-28T15:24:51;96320;;;15;77.5
68965;BME280;56017;48.680;8.998;2023-04-28T15:29:53;96320;;;15.1;77
68965;BME280;56017;48.680;8.998;2023-04-28T15:32:18;96320;;;15.2;77
68965;BME280;56017;48.680;8.998;2023-04-28T15:34:48;96320;;;15.4;77
68965;BME280;56017;48.680;8.998;2023-04-28T15:39:57;96320;;;15.6;77
68965;BME280;56017;48.680;8.998;2023-04-28T15:44:59;96310;;;15.5;77
68965;BME280;56017;48.680;8.998;2023-04-28T15:52:26;96300;;;15.7;76.5
68965;BME280;56017;48.680;8.998;2023-04-28T15:54:56;96300;;;15.8;76.5
68965;BME280;56017;48.680;8.998;2023-04-28T15:57:28;96300;;;15.8;76
68965;BME280;56017;48.680;8.998;2023-04-28T15:59:58;96300;;;15.8;76
68965;BME280;56017;48.680;8.998;2023-04-28T16:02:29;96300;;;15.7;76.5
68965;BME280;56017;48.680;8.998;2023-04-28T16:05:00;96300;;;15.5;76.5
68965;BME280;56017;48.680;8.998;2023-04-28T16:10:09;96290;;;15.3;77
68965;BME280;56017;48.680;8.998;2023-04-28T16:12:42;96290;;;15.3;77
68965;BME280;56017;48.680;8.998;2023-04-28T16:15:11;96280;;;15.3;77
68965;BME280;56017;48.680;8.998;2023-04-28T16:17:35;96280;;;15.5;76.5
68965;BME280;56017;48.680;8.998;2023-04-28T16:20:12;96280;;;15.5;76.5
68965;BME280;56017;48.680;8.998;2023-04-28T16:22:44;96290;;;15.5;77
68965;BME280;56017;48.680;8.998;2023-04-28T16:25:14;96290;;;15.8;76.5
68965;BME280;56017;48.680;8.998;2023-04-28T16:30:16;96290;;;15.8;76
68965;BME280;56017;48.680;8.998;2023-04-28T16:35:18;96300;;;15.7;76.5
68965;BME280;56017;48.680;8.998;2023-04-28T16:40:20;96300;;;15.8;76.5
68965;BME280;56017;48.680;8.998;2023-04-28T16:42:45;96300;;;15.9;76.5
68965;BME280;56017;48.680;8.998;2023-04-28T16:45:22;96310;;;16;76
68965;BME280;56017;48.680;8.998;2023-04-28T16:47:47;96310;;;15.9;76
68965;BME280;56017;48.680;8.998;2023-04-28T16:50:24;96310;;;15.9;76.5
68965;BME280;56017;48.680;8.998;2023-04-28T16:55:26;96310;;;15.8;76.5
68965;BME280;56017;48.680;8.998;2023-04-28T16:57:51;96310;;;15.9;77
68965;BME280;56017;48.680;8.998;2023-04-28T17:00:28;96310;;;16.1;76.5
68965;BME280;56017;48.680;8.998;2023-04-28T17:10:25;96300;;;16.3;76
68965;BME280;56017;48.680;8.998;2023-04-28T17:12:55;96290;;;16.6;75.5
68965;BME280;56017;48.680;8.998;2023-04-28T17:17:57;96270;;;17.1;74.5
68965;BME280;56017;48.680;8.998;2023-04-28T17:22:59;96260;;;18.1;73.5
68965;BME280;56017;48.680;8.998;2023-04-28T17:25:30;96270;;;18;73.5
68965;BME280;56017;48.680;8.998;2023-04-28T17:28:02;96280;;;17.7;74.5
68965;BME280;56017;48.680;8.998;2023-04-28T17:33:03;96290;;;17.3;75
68965;BME280;56017;48.680;8.998;2023-04-28T17:38:05;96300;;;16.9;75.5
68965;BME280;56017;48.680;8.998;2023-04-28T17:40:37;96300;;;16.8;76
68965;BME280;56017;48.680;8.998;2023-04-28T17:43:07;96300;;;16.8;76
68965;BME280;56017;48.680;8.998;2023-04-28T17:48:09;96300;;;16.8;76
68965;BME280;56017;48.680;8.998;2023-04-28T17:50:40;96300;;;16.7;76
68965;BME280;56017;48.680;8.998;2023-04-28T17:53:11;96300;;;16.6;76
68965;BME280;56017;48.680;8.998;2023-04-28T17:55:42;96300;;;16.5;76
68965;BME280;56017;48.680;8.998;2023-04-28T17:58:14;96300;;;16.5;76
68965;BME280;56017;48.680;8.998;2023-04-28T18:00:58;96300;;;16.4;76.5
68965;BME280;56017;48.680;8.998;2023-04-28T18:03:21;96290;;;16.4;76.5
68965;BME280;56017;48.680;8.998;2023-04-28T18:08:16;96300;;;16.2;76.5
68965;BME280;56017;48.680;8.998;2023-04-28T18:10:55;96300;;;16.2;76
68965;BME280;56017;48.680;8.998;2023-04-28T18:13:18;96310;;;16.1;76.5
68965;BME280;56017;48.680;8.998;2023-04-28T18:15:49;96310;;;16;76.5
68965;BME280;56017;48.680;8.998;2023-04-28T18:18:21;96310;;;16;76.5
68965;BME280;56017;48.680;8.998;2023-04-28T18:23:22;96320;;;15.9;77
68965;BME280;56017;48.680;8.998;2023-04-28T18:25:54;96330;;;15.8;76.5
68965;BME280;56017;48.680;8.998;2023-04-28T18:28:24;96330;;;15.7;77